createdAt,value
2022-08-03T00:00:50.901Z,100.00
2022-08-03T00:01:52.423Z,100.00
2022-08-03T00:02:54.091Z,100.00
2022-08-03T00:03:55.747Z,100.00
2022-08-03T00:04:57.218Z,100.00
2022-08-03T00:06:04.763Z,100.00
2022-08-03T00:07:06.676Z,100.00
2022-08-03T00:08:08.163Z,100.00
2022-08-03T00:09:10.731Z,100.00
2022-08-03T00:10:13.455Z,100.00
2022-08-03T00:11:14.920Z,100.00
2022-08-03T00:12:16.744Z,100.00
2022-08-03T00:13:18.380Z,100.00
2022-08-03T00:14:19.851Z,100.00
2022-08-03T00:15:21.377Z,100.00
2022-08-03T00:16:22.834Z,100.00
2022-08-03T00:17:24.607Z,100.00
2022-08-03T00:18:26.107Z,100.00
2022-08-03T00:19:27.734Z,100.00
2022-08-03T00:20:29.199Z,100.00
2022-08-03T00:21:30.702Z,100.00
2022-08-03T00:22:35.263Z,100.00
2022-08-03T00:23:52.291Z,100.00
2022-08-03T00:24:54.272Z,100.00
2022-08-03T00:25:56.675Z,100.00
2022-08-03T00:26:58.164Z,100.00
2022-08-03T00:27:59.676Z,100.00
2022-08-03T00:29:01.117Z,100.00
2022-08-03T00:30:02.737Z,100.00
2022-08-03T00:31:04.277Z,100.00
2022-08-03T00:32:06.075Z,100.00
2022-08-03T00:33:11.100Z,100.00
2022-08-03T00:34:12.619Z,100.00
2022-08-03T00:35:28.041Z,100.00
2022-08-03T00:36:35.685Z,100.00
2022-08-03T00:37:40.589Z,100.00
2022-08-03T00:38:43.226Z,100.00
2022-08-03T00:39:44.675Z,100.00
2022-08-03T00:40:46.545Z,100.00
2022-08-03T00:41:47.984Z,100.00
2022-08-03T00:43:09.731Z,100.00
2022-08-03T00:44:11.166Z,100.00
2022-08-03T00:45:12.636Z,100.00
2022-08-03T00:46:19.026Z,100.00
2022-08-03T00:47:22.687Z,100.00
2022-08-03T00:48:33.470Z,100.00
2022-08-03T00:49:35.731Z,100.00
2022-08-03T00:50:42.223Z,100.00
2022-08-03T00:51:43.800Z,100.00
2022-08-03T00:52:46.689Z,100.00
2022-08-03T00:53:48.900Z,100.00
2022-08-03T00:54:50.412Z,100.00
2022-08-03T00:55:51.903Z,100.00
2022-08-03T00:56:59.581Z,100.00
2022-08-03T00:58:03.593Z,100.00
2022-08-03T00:59:05.206Z,100.00
2022-08-03T01:00:08.591Z,100.00
2022-08-03T01:01:10.747Z,100.00
2022-08-03T01:02:12.289Z,100.00
2022-08-03T01:03:13.765Z,100.00
2022-08-03T01:04:15.409Z,100.00
2022-08-03T01:05:17.828Z,100.00
2022-08-03T01:06:28.707Z,100.00
2022-08-03T01:07:45.363Z,100.00
2022-08-03T01:08:54.911Z,100.00
2022-08-03T01:10:10.223Z,100.00
2022-08-03T01:12:05.401Z,100.00
2022-08-03T01:13:06.834Z,100.00
2022-08-03T01:14:39.465Z,100.00
2022-08-03T01:15:50.342Z,100.00
2022-08-03T01:16:59.294Z,100.00
2022-08-03T01:18:25.825Z,100.00
2022-08-03T01:19:56.253Z,100.00
2022-08-03T01:21:03.758Z,100.00
2022-08-03T01:22:22.826Z,100.00
2022-08-03T01:23:32.958Z,100.00
2022-08-03T01:25:08.136Z,100.00
2022-08-03T01:26:17.728Z,100.00
2022-08-03T01:27:23.084Z,100.00
2022-08-03T01:28:41.892Z,100.00
2022-08-03T01:29:52.468Z,100.00
2022-08-03T01:30:58.847Z,100.00
2022-08-03T01:32:59.812Z,100.00
2022-08-03T01:33:36.181Z,100.00
2022-08-03T01:34:52.311Z,100.00
2022-08-03T01:36:02.201Z,100.00
2022-08-03T01:37:07.399Z,100.00
2022-08-03T01:38:13.547Z,100.00
2022-08-03T01:39:16.423Z,100.00
2022-08-03T01:40:20.444Z,100.00
2022-08-03T01:41:29.725Z,100.00
2022-08-03T01:42:33.585Z,100.00
2022-08-03T01:44:26.406Z,100.00
2022-08-03T01:45:00.799Z,100.00
2022-08-03T01:46:03.796Z,100.00
2022-08-03T01:47:07.229Z,100.00
2022-08-03T01:48:11.752Z,100.00
2022-08-03T01:49:13.831Z,100.00
2022-08-03T01:50:18.963Z,100.00
2022-08-03T01:51:22.266Z,100.00
2022-08-03T01:52:25.167Z,100.00
2022-08-03T01:53:28.018Z,100.00
2022-08-03T01:54:30.543Z,100.00
2022-08-03T01:55:33.480Z,100.00
2022-08-03T01:56:37.037Z,100.00
2022-08-03T01:58:06.315Z,100.00
2022-08-03T01:59:03.238Z,100.00
2022-08-03T02:00:06.286Z,100.00
2022-08-03T02:01:15.186Z,100.00
2022-08-03T02:02:32.628Z,100.00
2022-08-03T02:04:00.706Z,100.00
2022-08-03T02:05:11.068Z,100.00
2022-08-03T02:07:00.330Z,100.00
2022-08-03T02:07:39.679Z,100.00
2022-08-03T02:08:43.148Z,100.00
2022-08-03T02:09:49.621Z,100.00
2022-08-03T02:10:52.856Z,100.00
2022-08-03T02:11:55.727Z,100.00
2022-08-03T02:13:01.214Z,100.00
2022-08-03T02:14:05.159Z,100.00
2022-08-03T02:15:07.744Z,100.00
2022-08-03T02:16:10.402Z,100.00
2022-08-03T02:17:14.038Z,100.00
2022-08-03T02:18:18.041Z,100.00
2022-08-03T02:19:19.882Z,100.00
2022-08-03T02:20:21.795Z,100.00
2022-08-03T02:21:56.559Z,100.00
2022-08-03T02:22:46.464Z,100.00
2022-08-03T02:23:48.056Z,100.00
2022-08-03T02:24:51.184Z,100.00
2022-08-03T02:26:02.852Z,100.00
2022-08-03T02:27:18.258Z,100.00
2022-08-03T02:28:22.172Z,100.00
2022-08-03T02:29:39.401Z,100.00
2022-08-03T02:30:45.315Z,100.00
2022-08-03T02:31:49.716Z,100.00
2022-08-03T02:32:57.765Z,100.00
2022-08-03T02:34:06.496Z,100.00
2022-08-03T02:35:12.043Z,100.00
2022-08-03T02:36:15.996Z,100.00
2022-08-03T02:37:19.604Z,100.00
2022-08-03T02:38:26.132Z,100.00
2022-08-03T02:39:31.308Z,100.00
2022-08-03T02:40:33.247Z,100.00
2022-08-03T02:41:43.352Z,100.00
2022-08-03T02:42:47.100Z,100.00
2022-08-03T02:44:06.333Z,100.00
2022-08-03T02:45:11.883Z,100.00
2022-08-03T02:46:17.224Z,100.00
2022-08-03T02:47:20.240Z,100.00
2022-08-03T02:48:28.754Z,100.00
2022-08-03T02:49:41.111Z,100.00
2022-08-03T02:50:54.566Z,100.00
2022-08-03T02:51:58.251Z,100.00
2022-08-03T02:53:01.516Z,100.00
2022-08-03T02:54:04.151Z,100.00
2022-08-03T02:55:09.396Z,100.00
2022-08-03T02:56:11.743Z,100.00
2022-08-03T02:57:15.025Z,100.00
2022-08-03T02:58:19.605Z,100.00
2022-08-03T02:59:21.865Z,100.00
2022-08-03T03:00:28.135Z,100.00
2022-08-03T03:01:31.469Z,100.00
2022-08-03T03:02:34.238Z,100.00
2022-08-03T03:03:44.638Z,100.00
2022-08-03T03:05:51.744Z,100.00
2022-08-03T03:06:10.765Z,100.00
2022-08-03T03:07:16.833Z,100.00
2022-08-03T03:08:20.860Z,100.00
2022-08-03T03:09:40.089Z,100.00
2022-08-03T03:10:44.276Z,100.00
2022-08-03T03:11:46.104Z,100.00
2022-08-03T03:12:50.227Z,100.00
2022-08-03T03:13:53.604Z,100.00
2022-08-03T03:14:55.206Z,100.00
2022-08-03T03:16:00.616Z,100.00
2022-08-03T03:17:03.200Z,100.00
2022-08-03T03:18:06.919Z,100.00
2022-08-03T03:19:08.705Z,100.00
2022-08-03T03:20:11.300Z,100.00
2022-08-03T03:21:16.206Z,100.00
2022-08-03T03:22:20.535Z,100.00
2022-08-03T03:23:23.840Z,100.00
2022-08-03T03:24:26.576Z,100.00
2022-08-03T03:25:31.511Z,100.00
2022-08-03T03:26:34.462Z,100.00
2022-08-03T03:27:36.392Z,100.00
2022-08-03T03:28:37.975Z,100.00
2022-08-03T03:29:39.988Z,100.00
2022-08-03T03:30:42.187Z,100.00
2022-08-03T03:31:43.726Z,100.00
2022-08-03T03:32:45.382Z,100.00
2022-08-03T03:33:47.928Z,100.00
2022-08-03T03:34:49.861Z,100.00
2022-08-03T03:35:53.419Z,100.00
2022-08-03T03:36:54.939Z,100.00
2022-08-03T03:37:56.829Z,100.00
2022-08-03T03:38:58.334Z,100.00
2022-08-03T03:39:59.831Z,100.00
2022-08-03T03:41:01.820Z,100.00
2022-08-03T03:42:04.492Z,100.00
2022-08-03T03:43:12.737Z,100.00
2022-08-03T03:44:14.325Z,100.00
2022-08-03T03:45:16.426Z,100.00
2022-08-03T03:46:18.239Z,100.00
2022-08-03T03:47:32.230Z,100.00
2022-08-03T03:48:34.520Z,100.00
2022-08-03T03:49:36.377Z,100.00
2022-08-03T03:50:38.264Z,100.00
2022-08-03T03:51:39.719Z,100.00
2022-08-03T03:52:41.316Z,100.00
2022-08-03T03:53:59.617Z,100.00
2022-08-03T03:55:01.754Z,100.00
2022-08-03T03:56:03.743Z,100.00
2022-08-03T03:57:05.268Z,100.00
2022-08-03T03:58:07.082Z,100.00
2022-08-03T03:59:08.569Z,100.00
2022-08-03T04:00:12.301Z,100.00
2022-08-03T04:01:14.182Z,100.00
2022-08-03T04:02:16.051Z,100.00
2022-08-03T04:03:17.647Z,100.00
2022-08-03T04:04:19.107Z,100.00
2022-08-03T04:05:20.558Z,100.00
2022-08-03T04:06:22.130Z,100.00
2022-08-03T04:07:25.767Z,100.00
2022-08-03T04:08:27.236Z,100.00
2022-08-03T04:09:29.953Z,100.00
2022-08-03T04:10:33.863Z,100.00
2022-08-03T04:11:40.511Z,100.00
2022-08-03T04:12:50.150Z,100.00
2022-08-03T04:14:02.149Z,100.00
2022-08-03T04:15:05.900Z,100.00
2022-08-03T04:16:10.528Z,100.00
2022-08-03T04:17:13.302Z,100.00
2022-08-03T04:18:17.008Z,100.00
2022-08-03T04:19:26.716Z,100.00
2022-08-03T04:20:31.775Z,100.00
2022-08-03T04:21:35.501Z,100.00
2022-08-03T04:22:37.808Z,100.00
2022-08-03T04:23:44.398Z,100.00
2022-08-03T04:25:09.091Z,100.00
2022-08-03T04:26:15.095Z,100.00
2022-08-03T04:27:20.700Z,100.00
2022-08-03T04:28:30.425Z,100.00
2022-08-03T04:29:35.278Z,100.00
2022-08-03T04:30:40.682Z,100.00
2022-08-03T04:31:43.191Z,100.00
2022-08-03T04:32:46.993Z,100.00
2022-08-03T04:33:52.612Z,100.00
2022-08-03T04:34:54.435Z,100.00
2022-08-03T04:36:02.909Z,100.00
2022-08-03T04:37:16.176Z,100.00
2022-08-03T04:38:19.246Z,100.00
2022-08-03T04:39:24.987Z,100.00
2022-08-03T04:40:39.597Z,100.00
2022-08-03T04:42:04.315Z,100.00
2022-08-03T04:43:06.235Z,100.00
2022-08-03T04:44:08.963Z,100.00
2022-08-03T04:45:15.574Z,100.00
2022-08-03T04:46:19.212Z,100.00
2022-08-03T04:47:20.885Z,100.00
2022-08-03T04:48:22.741Z,100.00
2022-08-03T04:49:25.183Z,100.00
2022-08-03T04:50:27.286Z,100.00
2022-08-03T04:51:40.996Z,100.00
2022-08-03T04:52:42.972Z,100.00
2022-08-03T04:53:44.643Z,100.00
2022-08-03T04:54:50.475Z,100.00
2022-08-03T04:55:52.444Z,100.00
2022-08-03T04:56:53.951Z,100.00
2022-08-03T04:57:55.933Z,100.00
2022-08-03T04:58:57.379Z,100.00
2022-08-03T05:00:03.168Z,100.00
2022-08-03T05:01:05.111Z,100.00
2022-08-03T05:02:06.641Z,100.00
2022-08-03T05:03:23.740Z,100.00
2022-08-03T05:04:26.004Z,100.00
2022-08-03T05:05:37.844Z,100.00
2022-08-03T05:06:55.156Z,100.00
2022-08-03T05:07:57.377Z,100.00
2022-08-03T05:09:02.320Z,100.00
2022-08-03T05:10:14.817Z,100.00
2022-08-03T05:11:17.866Z,100.00
2022-08-03T05:12:19.323Z,100.00
2022-08-03T05:13:20.810Z,100.00
2022-08-03T05:14:27.967Z,100.00
2022-08-03T05:15:29.851Z,100.00
2022-08-03T05:16:31.388Z,100.00
2022-08-03T05:17:33.050Z,100.00
2022-08-03T05:18:34.549Z,100.00
2022-08-03T05:19:36.030Z,100.00
2022-08-03T05:20:37.472Z,100.00
2022-08-03T05:21:41.683Z,100.00
2022-08-03T05:22:53.811Z,100.00
2022-08-03T05:23:55.303Z,100.00
2022-08-03T05:24:56.789Z,100.00
2022-08-03T05:25:58.230Z,100.00
2022-08-03T05:26:59.717Z,100.00
2022-08-03T05:28:01.211Z,100.00
2022-08-03T05:29:02.717Z,100.00
2022-08-03T05:30:27.288Z,100.00
2022-08-03T05:31:26.468Z,100.00
2022-08-03T05:32:27.952Z,100.00
2022-08-03T05:33:29.470Z,100.00
2022-08-03T05:34:30.943Z,100.00
2022-08-03T05:36:01.935Z,100.00
2022-08-03T05:36:54.236Z,100.00
2022-08-03T05:37:55.684Z,100.00
2022-08-03T05:39:02.252Z,100.00
2022-08-03T05:40:04.892Z,100.00
2022-08-03T05:41:21.891Z,100.00
2022-08-03T05:42:25.299Z,100.00
2022-08-03T05:43:26.767Z,100.00
2022-08-03T05:44:28.413Z,100.00
2022-08-03T05:45:32.149Z,100.00
2022-08-03T05:46:33.618Z,100.00
2022-08-03T05:47:35.090Z,100.00
2022-08-03T05:48:36.584Z,100.00
2022-08-03T05:49:38.114Z,100.00
2022-08-03T05:50:42.762Z,100.00
2022-08-03T05:51:44.787Z,100.00
2022-08-03T05:52:46.699Z,100.00
2022-08-03T05:53:48.987Z,100.00
2022-08-03T05:54:55.580Z,100.00
2022-08-03T05:56:03.455Z,100.00
2022-08-03T05:57:16.340Z,100.00
2022-08-03T05:58:17.942Z,100.00
2022-08-03T05:59:37.704Z,100.00
2022-08-03T06:00:40.008Z,100.00
2022-08-03T06:01:41.527Z,100.00
2022-08-03T06:02:43.113Z,100.00
2022-08-03T06:03:45.950Z,100.00
2022-08-03T06:04:47.392Z,100.00
2022-08-03T06:05:55.565Z,100.00
2022-08-03T06:07:02.084Z,100.00
2022-08-03T06:08:03.792Z,100.00
2022-08-03T06:09:05.374Z,100.00
2022-08-03T06:10:35.662Z,100.00
2022-08-03T06:11:29.213Z,100.00
2022-08-03T06:12:30.727Z,100.00
2022-08-03T06:13:32.541Z,100.00
2022-08-03T06:14:33.992Z,100.00
2022-08-03T06:15:35.478Z,100.00
2022-08-03T06:16:36.983Z,100.00
2022-08-03T06:17:45.725Z,100.00
2022-08-03T06:18:47.203Z,100.00
2022-08-03T06:19:48.651Z,100.00
2022-08-03T06:20:50.811Z,100.00
2022-08-03T06:21:53.819Z,100.00
2022-08-03T06:23:01.237Z,100.00
2022-08-03T06:24:02.977Z,100.00
2022-08-03T06:25:10.240Z,100.00
2022-08-03T06:26:14.465Z,100.00
2022-08-03T06:27:16.256Z,100.00
2022-08-03T06:28:53.367Z,100.00
2022-08-03T06:29:39.168Z,100.00
2022-08-03T06:30:41.124Z,100.00
2022-08-03T06:31:42.614Z,100.00
2022-08-03T06:32:44.563Z,100.00
2022-08-03T06:34:33.671Z,100.00
2022-08-03T06:35:15.167Z,100.00
2022-08-03T06:36:16.641Z,100.00
2022-08-03T06:37:18.095Z,100.00
2022-08-03T06:38:19.580Z,100.00
2022-08-03T06:39:24.007Z,100.00
2022-08-03T06:40:25.704Z,100.00
2022-08-03T06:41:27.962Z,100.00
2022-08-03T06:42:29.447Z,100.00
2022-08-03T06:43:31.212Z,100.00
2022-08-03T06:44:37.407Z,100.00
2022-08-03T06:45:38.901Z,100.00
2022-08-03T06:46:40.366Z,100.00
2022-08-03T06:47:41.851Z,100.00
2022-08-03T06:48:46.278Z,100.00
2022-08-03T06:50:12.738Z,98.71
2022-08-03T06:51:09.211Z,97.91
2022-08-03T06:52:10.659Z,96.99
2022-08-03T06:53:19.762Z,96.60
2022-08-03T06:54:23.144Z,96.18
2022-08-03T06:55:24.832Z,96.13
2022-08-03T06:56:26.281Z,95.32
2022-08-03T06:57:27.777Z,94.55
2022-08-03T06:58:29.288Z,93.94
2022-08-03T07:00:09.956Z,94.22
2022-08-03T07:00:52.688Z,94.18
2022-08-03T07:01:54.200Z,96.63
2022-08-03T07:02:58.287Z,98.18
2022-08-03T07:04:00.095Z,98.65
2022-08-03T07:05:01.603Z,99.62
2022-08-03T07:06:03.495Z,99.50
2022-08-03T07:07:05.050Z,99.35
2022-08-03T07:08:06.552Z,97.99
2022-08-03T07:09:08.082Z,97.02
2022-08-03T07:10:10.389Z,96.32
2022-08-03T07:11:11.832Z,96.29
2022-08-03T07:12:13.305Z,95.43
2022-08-03T07:13:14.800Z,93.60
2022-08-03T07:14:16.297Z,93.96
2022-08-03T07:15:20.250Z,93.60
2022-08-03T07:16:39.196Z,93.30
2022-08-03T07:17:40.656Z,93.37
2022-08-03T07:18:42.214Z,93.20
2022-08-03T07:19:43.672Z,92.80
2022-08-03T07:20:45.159Z,94.90
2022-08-03T07:21:46.612Z,94.76
2022-08-03T07:22:48.188Z,94.05
2022-08-03T07:23:49.668Z,94.87
2022-08-03T07:24:51.121Z,95.53
2022-08-03T07:25:52.877Z,95.16
2022-08-03T07:26:54.315Z,95.15
2022-08-03T07:27:55.839Z,95.58
2022-08-03T07:28:57.837Z,96.23
2022-08-03T07:29:59.523Z,95.86
2022-08-03T07:31:00.971Z,95.66
2022-08-03T07:32:04.235Z,95.26
2022-08-03T07:33:05.724Z,96.15
2022-08-03T07:34:07.215Z,97.27
2022-08-03T07:35:24.205Z,98.55
2022-08-03T07:36:26.890Z,99.02
2022-08-03T07:37:29.403Z,98.20
2022-08-03T07:38:31.076Z,96.46
2022-08-03T07:39:32.595Z,96.74
2022-08-03T07:40:34.160Z,96.42
2022-08-03T07:41:35.639Z,95.33
2022-08-03T07:42:37.086Z,95.66
2022-08-03T07:43:38.532Z,95.83
2022-08-03T07:44:40.073Z,96.32
2022-08-03T07:45:41.508Z,96.35
2022-08-03T07:46:42.993Z,94.67
2022-08-03T07:47:53.053Z,95.09
2022-08-03T07:48:54.890Z,95.36
2022-08-03T07:49:56.842Z,95.88
2022-08-03T07:50:58.316Z,95.22
2022-08-03T07:51:59.800Z,93.01
2022-08-03T07:53:01.253Z,92.42
2022-08-03T07:54:03.075Z,92.77
2022-08-03T07:55:08.679Z,92.84
2022-08-03T07:56:11.443Z,91.75
2022-08-03T07:57:13.142Z,90.22
2022-08-03T07:58:16.506Z,89.44
2022-08-03T07:59:20.824Z,88.41
2022-08-03T08:00:22.270Z,88.35
2022-08-03T08:01:24.195Z,89.19
2022-08-03T08:02:25.793Z,89.11
2022-08-03T08:03:27.268Z,89.72
2022-08-03T08:04:28.789Z,89.45
2022-08-03T08:05:31.275Z,86.32
2022-08-03T08:06:32.775Z,88.42
2022-08-03T08:07:34.276Z,87.82
2022-08-03T08:08:35.736Z,86.18
2022-08-03T08:09:37.387Z,86.74
2022-08-03T08:10:38.952Z,86.06
2022-08-03T08:11:40.416Z,84.06
2022-08-03T08:12:41.908Z,83.48
2022-08-03T08:13:43.383Z,83.40
2022-08-03T08:14:44.889Z,81.60
2022-08-03T08:15:46.447Z,80.82
2022-08-03T08:16:49.377Z,80.16
2022-08-03T08:17:53.618Z,79.17
2022-08-03T08:18:55.100Z,78.64
2022-08-03T08:19:56.644Z,79.08
2022-08-03T08:20:59.356Z,79.16
2022-08-03T08:22:02.750Z,78.25
2022-08-03T08:23:19.913Z,77.89
2022-08-03T08:24:28.575Z,77.73
2022-08-03T08:25:31.570Z,76.04
2022-08-03T08:26:33.135Z,76.42
2022-08-03T08:28:29.332Z,76.70
2022-08-03T08:29:04.281Z,74.34
2022-08-03T08:30:11.418Z,73.30
2022-08-03T08:31:14.525Z,72.46
2022-08-03T08:32:16.235Z,71.90
2022-08-03T08:33:22.974Z,72.13
2022-08-03T08:34:25.385Z,70.90
2022-08-03T08:35:26.993Z,70.46
2022-08-03T08:36:28.466Z,71.45
2022-08-03T08:37:29.966Z,70.71
2022-08-03T08:38:31.429Z,67.04
2022-08-03T08:39:32.965Z,67.76
2022-08-03T08:40:34.419Z,69.02
2022-08-03T08:41:35.979Z,67.03
2022-08-03T08:42:38.049Z,64.54
2022-08-03T08:43:39.739Z,64.08
2022-08-03T08:44:41.214Z,65.64
2022-08-03T08:45:43.666Z,66.82
2022-08-03T08:46:45.588Z,66.45
2022-08-03T08:47:51.483Z,65.44
2022-08-03T08:48:54.240Z,67.32
2022-08-03T08:50:09.410Z,67.03
2022-08-03T08:51:12.726Z,66.51
2022-08-03T08:52:24.866Z,65.91
2022-08-03T08:53:29.473Z,65.37
2022-08-03T08:54:32.625Z,64.99
2022-08-03T08:55:58.642Z,62.99
2022-08-03T08:56:58.593Z,64.82
2022-08-03T08:58:05.528Z,61.36
2022-08-03T08:59:07.668Z,60.99
2022-08-03T09:00:11.156Z,60.63
2022-08-03T09:01:12.741Z,59.76
2022-08-03T09:02:14.457Z,59.86
2022-08-03T09:03:29.058Z,61.29
2022-08-03T09:04:32.456Z,59.88
2022-08-03T09:05:54.954Z,59.55
2022-08-03T09:07:18.004Z,61.23
2022-08-03T09:08:18.077Z,61.91
2022-08-03T09:10:10.126Z,62.82
2022-08-03T09:10:41.024Z,61.31
2022-08-03T09:11:52.427Z,62.80
2022-08-03T09:13:02.539Z,63.24
2022-08-03T09:14:04.448Z,62.79
2022-08-03T09:15:29.537Z,62.33
2022-08-03T09:16:31.052Z,59.88
2022-08-03T09:17:40.566Z,59.67
2022-08-03T09:18:44.095Z,59.77
2022-08-03T09:20:05.043Z,60.55
2022-08-03T09:21:35.508Z,60.43
2022-08-03T09:22:51.762Z,60.13
2022-08-03T09:24:04.358Z,57.47
2022-08-03T09:25:23.842Z,56.67
2022-08-03T09:26:28.075Z,55.31
2022-08-03T09:27:29.871Z,56.06
2022-08-03T09:29:01.604Z,56.22
2022-08-03T09:29:58.040Z,55.07
2022-08-03T09:31:00.493Z,55.96
2022-08-03T09:32:03.830Z,54.43
2022-08-03T09:33:08.310Z,53.26
2022-08-03T09:34:12.963Z,54.45
2022-08-03T09:35:14.769Z,53.84
2022-08-03T09:36:55.884Z,50.49
2022-08-03T09:38:16.638Z,51.19
2022-08-03T09:39:37.468Z,51.38
2022-08-03T09:40:43.268Z,50.42
2022-08-03T09:42:03.661Z,49.52
2022-08-03T09:43:05.185Z,49.61
2022-08-03T09:44:07.280Z,48.54
2022-08-03T09:45:26.332Z,47.96
2022-08-03T09:46:27.879Z,47.30
2022-08-03T09:47:34.421Z,49.46
2022-08-03T09:48:35.936Z,50.43
2022-08-03T09:49:39.007Z,50.42
2022-08-03T09:50:58.449Z,50.41
2022-08-03T09:52:38.495Z,50.22
2022-08-03T09:53:42.751Z,51.57
2022-08-03T09:55:02.076Z,49.51
2022-08-03T09:56:35.041Z,50.11
2022-08-03T09:57:27.079Z,48.85
2022-08-03T09:58:30.713Z,48.28
2022-08-03T09:59:33.443Z,48.52
2022-08-03T10:00:53.758Z,49.17
2022-08-03T10:01:56.699Z,48.56
2022-08-03T10:03:04.476Z,49.21
2022-08-03T10:04:05.928Z,49.92
2022-08-03T10:05:09.085Z,51.94
2022-08-03T10:06:20.984Z,51.44
2022-08-03T10:07:24.575Z,51.61
2022-08-03T10:08:26.039Z,49.32
2022-08-03T10:09:27.484Z,48.80
2022-08-03T10:10:43.035Z,49.09
2022-08-03T10:11:44.823Z,49.50
2022-08-03T10:12:46.307Z,50.33
2022-08-03T10:13:47.786Z,51.67
2022-08-03T10:14:49.432Z,49.44
2022-08-03T10:16:21.762Z,49.02
2022-08-03T10:17:12.451Z,48.19
2022-08-03T10:18:14.190Z,48.56
2022-08-03T10:19:16.677Z,49.99
2022-08-03T10:20:18.167Z,51.92
2022-08-03T10:21:20.671Z,50.00
2022-08-03T10:22:23.621Z,50.29
2022-08-03T10:23:25.484Z,49.30
2022-08-03T10:24:30.413Z,49.35
2022-08-03T10:25:34.133Z,49.71
2022-08-03T10:26:38.470Z,49.29
2022-08-03T10:27:47.245Z,50.07
2022-08-03T10:28:53.764Z,49.43
2022-08-03T10:29:57.937Z,49.76
2022-08-03T10:30:59.715Z,49.91
2022-08-03T10:32:04.636Z,49.84
2022-08-03T10:33:51.389Z,49.56
2022-08-03T10:34:44.498Z,49.63
2022-08-03T10:35:52.497Z,50.61
2022-08-03T10:36:59.947Z,49.97
2022-08-03T10:38:10.219Z,50.21
2022-08-03T10:39:16.191Z,50.90
2022-08-03T10:40:39.567Z,49.88
2022-08-03T10:41:43.753Z,50.87
2022-08-03T10:42:45.984Z,50.22
2022-08-03T10:43:56.349Z,50.15
2022-08-03T10:45:06.052Z,50.55
2022-08-03T10:46:08.234Z,49.14
2022-08-03T10:47:10.975Z,49.67
2022-08-03T10:48:13.596Z,51.72
2022-08-03T10:49:17.162Z,50.65
2022-08-03T10:50:36.202Z,47.85
2022-08-03T10:51:38.396Z,47.83
2022-08-03T10:53:14.710Z,48.39
2022-08-03T10:54:40.385Z,50.68
2022-08-03T10:55:46.332Z,48.19
2022-08-03T10:56:49.605Z,48.08
2022-08-03T10:57:56.242Z,47.26
2022-08-03T10:59:00.496Z,46.89
2022-08-03T11:00:06.108Z,46.99
2022-08-03T11:01:09.861Z,47.50
2022-08-03T11:02:12.062Z,49.16
2022-08-03T11:03:13.989Z,49.58
2022-08-03T11:04:17.959Z,49.76
2022-08-03T11:05:27.560Z,48.39
2022-08-03T11:06:29.071Z,48.57
2022-08-03T11:07:39.164Z,48.89
2022-08-03T11:08:40.655Z,48.99
2022-08-03T11:09:43.721Z,47.89
2022-08-03T11:10:45.943Z,49.07
2022-08-03T11:11:48.589Z,48.66
2022-08-03T11:12:50.409Z,47.37
2022-08-03T11:14:02.512Z,46.46
2022-08-03T11:15:07.425Z,45.18
2022-08-03T11:16:21.790Z,45.68
2022-08-03T11:17:24.119Z,46.20
2022-08-03T11:18:26.994Z,47.09
2022-08-03T11:19:57.889Z,46.23
2022-08-03T11:21:00.441Z,45.53
2022-08-03T11:22:01.966Z,45.58
2022-08-03T11:23:03.527Z,44.79
2022-08-03T11:24:06.782Z,44.20
2022-08-03T11:25:08.587Z,44.02
2022-08-03T11:26:29.958Z,45.51
2022-08-03T11:27:34.475Z,45.95
2022-08-03T11:28:36.944Z,44.47
2022-08-03T11:29:53.685Z,41.91
2022-08-03T11:30:55.231Z,41.19
2022-08-03T11:31:56.897Z,41.70
2022-08-03T11:32:59.596Z,42.35
2022-08-03T11:34:08.187Z,41.30
2022-08-03T11:35:27.919Z,38.45
2022-08-03T11:36:32.245Z,39.33
2022-08-03T11:37:34.535Z,37.65
2022-08-03T11:39:16.702Z,39.54
2022-08-03T11:40:43.993Z,39.37
2022-08-03T11:41:45.551Z,41.01
2022-08-03T11:42:47.027Z,42.15
2022-08-03T11:43:48.528Z,40.88
2022-08-03T11:45:00.426Z,41.04
2022-08-03T11:46:13.093Z,42.36
2022-08-03T11:47:14.921Z,40.44
2022-08-03T11:48:16.978Z,41.88
2022-08-03T11:49:20.697Z,40.46
2022-08-03T11:50:22.462Z,40.87
2022-08-03T11:51:29.333Z,39.75
2022-08-03T11:52:40.534Z,39.44
2022-08-03T11:53:43.303Z,39.84
2022-08-03T11:54:45.494Z,41.46
2022-08-03T11:55:48.105Z,42.70
2022-08-03T11:56:50.337Z,41.85
2022-08-03T11:59:01.689Z,41.21
2022-08-03T11:59:20.690Z,41.70
2022-08-03T12:00:25.836Z,41.12
2022-08-03T12:01:27.536Z,41.61
2022-08-03T12:02:29.007Z,42.88
2022-08-03T12:03:33.830Z,43.56
2022-08-03T12:04:52.197Z,41.24
2022-08-03T12:05:54.827Z,41.51
2022-08-03T12:07:00.988Z,41.96
2022-08-03T12:08:06.769Z,40.94
2022-08-03T12:09:17.296Z,40.35
2022-08-03T12:10:22.732Z,39.26
2022-08-03T12:11:24.221Z,38.18
2022-08-03T12:12:26.042Z,38.90
2022-08-03T12:14:44.868Z,39.27
2022-08-03T12:14:58.047Z,40.49
2022-08-03T12:15:59.545Z,41.60
2022-08-03T12:17:01.045Z,40.10
2022-08-03T12:18:12.343Z,41.32
2022-08-03T12:19:13.723Z,40.77
2022-08-03T12:20:34.633Z,41.52
2022-08-03T12:21:56.800Z,41.87
2022-08-03T12:23:05.260Z,40.87
2022-08-03T12:24:06.756Z,40.91
2022-08-03T12:25:09.823Z,39.16
2022-08-03T12:26:11.848Z,38.70
2022-08-03T12:27:23.349Z,39.30
2022-08-03T12:28:35.998Z,39.78
2022-08-03T12:29:39.716Z,40.81
2022-08-03T12:30:41.367Z,39.56
2022-08-03T12:31:42.849Z,39.26
2022-08-03T12:32:44.911Z,39.22
2022-08-03T12:34:03.069Z,38.36
2022-08-03T12:35:05.176Z,40.66
2022-08-03T12:36:08.516Z,40.42
2022-08-03T12:37:29.817Z,40.72
2022-08-03T12:38:36.458Z,40.23
2022-08-03T12:40:02.698Z,40.09
2022-08-03T12:41:04.293Z,40.79
2022-08-03T12:42:06.046Z,41.31
2022-08-03T12:43:12.195Z,41.32
2022-08-03T12:44:14.034Z,40.30
2022-08-03T12:45:27.006Z,40.40
2022-08-03T12:46:35.663Z,40.14
2022-08-03T12:47:54.303Z,40.04
2022-08-03T12:49:04.016Z,39.09
2022-08-03T12:50:05.992Z,39.15
2022-08-03T12:51:09.271Z,37.65
2022-08-03T12:52:10.774Z,40.12
2022-08-03T12:53:12.250Z,41.28
2022-08-03T12:54:17.820Z,41.44
2022-08-03T12:55:26.635Z,41.03
2022-08-03T12:56:28.189Z,40.96
2022-08-03T12:57:42.360Z,41.08
2022-08-03T12:58:43.831Z,41.25
2022-08-03T12:59:53.469Z,40.84
2022-08-03T13:00:56.057Z,40.97
2022-08-03T13:01:58.374Z,40.00
2022-08-03T13:03:38.437Z,41.49
2022-08-03T13:04:27.693Z,41.21
2022-08-03T13:05:31.588Z,41.55
2022-08-03T13:06:33.081Z,40.52
2022-08-03T13:07:41.405Z,39.64
2022-08-03T13:08:47.955Z,40.21
2022-08-03T13:09:51.957Z,41.06
2022-08-03T13:10:53.455Z,40.30
2022-08-03T13:12:05.675Z,39.91
2022-08-03T13:13:09.811Z,39.32
2022-08-03T13:14:16.672Z,39.44
2022-08-03T13:15:21.932Z,38.46
2022-08-03T13:16:23.700Z,38.61
2022-08-03T13:17:26.196Z,39.60
2022-08-03T13:18:27.727Z,39.48
2022-08-03T13:19:29.242Z,40.32
2022-08-03T13:20:30.723Z,40.68
2022-08-03T13:21:32.765Z,39.95
2022-08-03T13:22:34.563Z,38.42
2022-08-03T13:23:36.044Z,37.80
2022-08-03T13:24:37.619Z,38.17
2022-08-03T13:25:39.071Z,37.70
2022-08-03T13:26:56.911Z,38.55
2022-08-03T13:28:03.156Z,39.82
2022-08-03T13:29:12.661Z,39.50
2022-08-03T13:30:16.183Z,39.71
2022-08-03T13:31:29.037Z,41.06
2022-08-03T13:32:31.282Z,40.60
2022-08-03T13:33:33.038Z,41.77
2022-08-03T13:34:34.733Z,40.45
2022-08-03T13:35:36.187Z,40.91
2022-08-03T13:37:06.437Z,40.98
2022-08-03T13:37:59.539Z,40.73
2022-08-03T13:39:01.046Z,40.50
2022-08-03T13:40:06.788Z,40.35
2022-08-03T13:41:08.701Z,39.86
2022-08-03T13:42:12.103Z,39.92
2022-08-03T13:43:13.589Z,38.02
2022-08-03T13:44:30.208Z,38.24
2022-08-03T13:45:31.748Z,38.23
2022-08-03T13:46:33.221Z,39.08
2022-08-03T13:47:34.718Z,39.80
2022-08-03T13:48:37.690Z,40.15
2022-08-03T13:49:39.439Z,40.80
2022-08-03T13:50:43.041Z,41.14
2022-08-03T13:51:44.754Z,41.50
2022-08-03T13:52:46.215Z,42.54
2022-08-03T13:53:47.672Z,40.91
2022-08-03T13:54:49.112Z,40.16
2022-08-03T13:55:50.592Z,40.33